createdAt,value
2018-07-13T00:02:15.692Z,7.33
2018-07-13T00:04:44.148Z,7.17
2018-07-13T00:07:12.612Z,7.20
2018-07-13T00:09:41.052Z,6.20
2018-07-13T00:12:09.492Z,7.27
2018-07-13T00:14:38.593Z,7.00
2018-07-13T00:17:07.078Z,6.33
2018-07-13T00:19:35.485Z,6.97
2018-07-13T00:22:03.944Z,6.87
2018-07-13T00:24:32.381Z,7.50
2018-07-13T00:27:00.848Z,6.40
2018-07-13T00:29:29.280Z,7.23
2018-07-13T00:31:57.709Z,6.50
2018-07-13T00:34:26.208Z,9.30
2018-07-13T00:36:54.734Z,7.03
2018-07-13T00:39:23.180Z,6.73
2018-07-13T00:41:51.704Z,7.80
2018-07-13T00:44:20.152Z,7.50
2018-07-13T00:46:48.572Z,8.03
2018-07-13T00:49:17.020Z,7.60
2018-07-13T00:51:45.486Z,8.93
2018-07-13T00:54:13.931Z,8.10
2018-07-13T00:56:42.378Z,8.80
2018-07-13T00:59:10.830Z,8.27
2018-07-13T01:01:38.990Z,8.07
2018-07-13T01:04:07.554Z,9.43
2018-07-13T01:06:36.036Z,8.83
2018-07-13T01:09:05.687Z,8.23
2018-07-13T01:11:34.172Z,8.43
2018-07-13T01:14:02.624Z,7.50
2018-07-13T01:16:30.753Z,7.40
2018-07-13T01:18:59.231Z,7.90
2018-07-13T01:21:27.659Z,7.43
2018-07-13T01:23:56.123Z,8.40
2018-07-13T01:26:25.014Z,8.97
2018-07-13T01:28:53.435Z,8.50
2018-07-13T01:31:21.870Z,7.70
2018-07-13T01:33:50.364Z,8.00
2018-07-13T01:36:18.842Z,8.20
2018-07-13T01:38:47.304Z,8.50
2018-07-13T01:41:15.777Z,8.83
2018-07-13T01:43:44.244Z,8.20
2018-07-13T01:46:12.732Z,8.80
2018-07-13T01:48:41.165Z,8.33
2018-07-13T01:51:09.635Z,8.17
2018-07-13T01:53:38.114Z,9.47
2018-07-13T01:56:06.556Z,8.53
2018-07-13T01:58:35.036Z,8.40
2018-07-13T02:01:03.675Z,9.13
2018-07-13T02:03:32.144Z,9.23
2018-07-13T02:06:00.584Z,8.80
2018-07-13T02:08:29.053Z,8.67
2018-07-13T02:10:57.498Z,9.40
2018-07-13T02:13:25.948Z,9.30
2018-07-13T02:15:54.381Z,10.63
2018-07-13T02:18:22.821Z,9.90
2018-07-13T02:20:51.284Z,10.23
2018-07-13T02:23:19.732Z,8.00
2018-07-13T02:25:48.220Z,9.10
2018-07-13T02:28:16.728Z,9.00
2018-07-13T02:30:45.193Z,10.23
2018-07-13T02:33:13.626Z,9.43
2018-07-13T02:35:42.093Z,9.00
2018-07-13T02:38:10.521Z,9.63
2018-07-13T02:40:38.949Z,9.37
2018-07-13T02:43:07.452Z,9.20
2018-07-13T02:45:35.885Z,9.60
2018-07-13T02:48:04.369Z,9.00
2018-07-13T02:50:32.786Z,9.30
2018-07-13T02:53:01.244Z,9.20
2018-07-13T02:55:29.697Z,9.17
2018-07-13T02:57:58.164Z,9.00
2018-07-13T03:00:26.660Z,8.83
2018-07-13T03:02:55.137Z,9.33
2018-07-13T03:05:23.577Z,9.67
2018-07-13T03:07:52.259Z,9.97
2018-07-13T03:10:20.700Z,9.37
2018-07-13T03:12:49.168Z,10.00
2018-07-13T03:15:17.634Z,9.70
2018-07-13T03:17:46.096Z,10.23
2018-07-13T03:20:14.228Z,9.30
2018-07-13T03:22:42.670Z,8.90
2018-07-13T03:25:11.128Z,9.13
2018-07-13T03:27:39.567Z,10.13
2018-07-13T03:30:08.061Z,10.30
2018-07-13T03:32:36.511Z,10.27
2018-07-13T03:35:05.038Z,10.20
2018-07-13T03:37:33.879Z,11.73
2018-07-13T03:40:02.310Z,11.90
2018-07-13T03:42:30.772Z,11.27
2018-07-13T03:44:59.200Z,11.90
2018-07-13T03:47:27.681Z,11.53
2018-07-13T03:49:56.116Z,11.23
2018-07-13T03:52:24.584Z,11.73
2018-07-13T03:54:53.033Z,10.13
2018-07-13T03:57:21.476Z,11.37
2018-07-13T03:59:49.973Z,10.27
2018-07-13T04:02:18.447Z,11.60
2018-07-13T04:04:46.925Z,11.23
2018-07-13T04:07:15.384Z,12.00
2018-07-13T04:09:43.857Z,12.27
2018-07-13T04:12:12.296Z,12.10
2018-07-13T04:14:40.791Z,12.70
2018-07-13T04:17:09.248Z,10.87
2018-07-13T04:19:37.802Z,12.70
2018-07-13T04:22:06.547Z,11.70
2018-07-13T04:24:35.032Z,11.50
2018-07-13T04:27:03.548Z,10.10
2018-07-13T04:29:32.621Z,10.70
2018-07-13T04:32:00.780Z,10.77
2018-07-13T04:34:29.251Z,10.67
2018-07-13T04:36:57.756Z,12.00
2018-07-13T04:39:26.184Z,10.77
2018-07-13T04:41:54.669Z,11.00
2018-07-13T04:44:23.140Z,10.77
2018-07-13T04:46:51.709Z,12.07
2018-07-13T04:49:20.221Z,11.57
2018-07-13T04:51:48.680Z,11.13
2018-07-13T04:54:17.368Z,11.40
2018-07-13T04:56:45.911Z,12.67
2018-07-13T04:59:14.459Z,11.90
2018-07-13T05:01:43.010Z,12.97
2018-07-13T05:04:11.531Z,13.40
2018-07-13T05:06:40.112Z,15.70
2018-07-13T05:09:09.281Z,15.30
2018-07-13T05:11:37.814Z,15.73
2018-07-13T05:14:06.378Z,16.17
2018-07-13T05:16:35.052Z,16.87
2018-07-13T05:19:03.549Z,16.80
2018-07-13T05:21:32.128Z,18.77
2018-07-13T05:24:00.721Z,19.97
2018-07-13T05:26:29.510Z,18.80
2018-07-13T05:28:58.069Z,17.50
2018-07-13T05:31:26.608Z,16.23
2018-07-13T05:33:55.165Z,16.33
2018-07-13T05:36:23.672Z,16.33
2018-07-13T05:38:52.379Z,19.10
2018-07-13T05:41:21.198Z,17.80
2018-07-13T05:43:49.760Z,19.20
2018-07-13T05:46:18.287Z,18.70
2018-07-13T05:48:46.795Z,19.80
2018-07-13T05:51:15.314Z,19.00
2018-07-13T05:53:43.856Z,18.00
2018-07-13T05:56:12.389Z,18.50
2018-07-13T05:58:41.993Z,17.80
2018-07-13T06:01:11.281Z,18.10
2018-07-13T06:03:39.585Z,18.50
2018-07-13T06:06:08.353Z,17.33
2018-07-13T06:08:36.981Z,19.40
2018-07-13T06:11:05.549Z,19.97
2018-07-13T06:13:34.024Z,18.10
2018-07-13T06:16:02.554Z,17.40
2018-07-13T06:18:31.044Z,19.03
2018-07-13T06:20:59.487Z,16.67
2018-07-13T06:23:27.977Z,17.03
2018-07-13T06:25:56.407Z,18.73
2018-07-13T06:28:24.872Z,18.17
2018-07-13T06:30:53.320Z,18.50
2018-07-13T06:33:21.874Z,15.20
2018-07-13T06:35:50.373Z,14.17
2018-07-13T06:38:18.893Z,16.07
2018-07-13T06:40:48.905Z,13.80
2018-07-13T06:43:17.490Z,16.40
2018-07-13T06:45:45.919Z,13.67
2018-07-13T06:48:14.443Z,13.20
2018-07-13T06:50:42.969Z,14.93
2018-07-13T06:53:13.962Z,14.43
2018-07-13T06:55:42.461Z,14.27
2018-07-13T06:59:19.329Z,13.17
2018-07-13T07:01:48.300Z,13.60
2018-07-13T07:04:28.438Z,13.67
2018-07-13T07:06:57.647Z,13.70
2018-07-13T07:09:27.465Z,13.80
2018-07-13T07:12:14.485Z,12.00
2018-07-13T07:14:42.961Z,11.63
2018-07-13T07:17:11.421Z,13.93
2018-07-13T07:19:39.937Z,12.63
2018-07-13T07:22:08.458Z,13.50
2018-07-13T07:24:36.950Z,12.90
2018-07-13T07:27:05.463Z,13.10
2018-07-13T07:29:33.907Z,13.67
2018-07-13T07:32:02.389Z,13.33
2018-07-13T07:34:30.838Z,13.43
2018-07-13T07:36:59.292Z,14.70
2018-07-13T07:39:27.755Z,13.50
2018-07-13T07:41:56.276Z,13.57
2018-07-13T07:44:24.776Z,14.13
2018-07-13T07:46:53.230Z,14.13
2018-07-13T07:49:21.742Z,13.93
2018-07-13T07:51:50.190Z,15.50
2018-07-13T07:54:18.677Z,13.77
2018-07-13T07:56:47.132Z,16.30
2018-07-13T07:59:15.584Z,15.27
2018-07-13T08:01:44.068Z,17.40
2018-07-13T08:04:12.517Z,16.50
2018-07-13T08:06:41.200Z,16.53
2018-07-13T08:09:09.546Z,16.03
2018-07-13T08:11:38.040Z,15.30
2018-07-13T08:14:07.088Z,16.53
2018-07-13T08:16:36.189Z,15.53
2018-07-13T08:19:04.721Z,14.90
2018-07-13T08:21:37.371Z,14.67
2018-07-13T08:24:05.924Z,14.67
2018-07-13T08:26:34.099Z,15.03
2018-07-13T08:29:02.621Z,13.13
2018-07-13T08:31:31.080Z,14.47
2018-07-13T08:33:59.534Z,13.57
2018-07-13T08:36:27.988Z,13.83
2018-07-13T08:38:56.498Z,13.97
2018-07-13T08:41:25.021Z,13.07
2018-07-13T08:43:53.585Z,14.00
2018-07-13T08:46:23.000Z,13.60
2018-07-13T08:48:51.516Z,12.23
2018-07-13T08:51:20.097Z,15.37
2018-07-13T08:53:48.640Z,11.47
2018-07-13T08:56:17.195Z,14.37
2018-07-13T08:58:45.731Z,12.90
2018-07-13T09:01:14.229Z,12.90
2018-07-13T09:03:42.748Z,10.90
2018-07-13T09:06:11.264Z,11.07
2018-07-13T09:08:39.752Z,10.20
2018-07-13T09:11:08.650Z,10.93
2018-07-13T09:13:37.196Z,10.17
2018-07-13T09:16:05.740Z,10.43
2018-07-13T09:18:34.265Z,11.37
2018-07-13T09:21:02.749Z,9.73
2018-07-13T09:23:31.245Z,8.80
2018-07-13T09:25:59.740Z,9.40
2018-07-13T09:28:28.250Z,8.17
2018-07-13T09:30:56.392Z,7.47
2018-07-13T09:33:24.931Z,8.17
2018-07-13T09:35:53.405Z,8.43
2018-07-13T09:38:21.932Z,9.63
2018-07-13T09:40:50.477Z,10.37
2018-07-13T09:43:18.964Z,6.97
2018-07-13T09:45:47.477Z,8.40
2018-07-13T09:48:15.968Z,7.97
2018-07-13T09:50:44.462Z,8.60
2018-07-13T09:53:12.954Z,8.23
2018-07-13T09:55:41.438Z,7.90
2018-07-13T09:58:09.858Z,8.43
2018-07-13T10:00:43.828Z,6.90
2018-07-13T10:03:11.808Z,7.23
2018-07-13T10:05:40.365Z,5.93
2018-07-13T10:08:08.831Z,6.73
2018-07-13T10:10:37.321Z,6.30
2018-07-13T10:13:05.929Z,6.50
2018-07-13T10:15:34.433Z,8.00
2018-07-13T10:18:02.942Z,5.73
2018-07-13T10:20:31.469Z,5.87
2018-07-13T10:23:00.013Z,7.13
2018-07-13T10:25:29.721Z,8.37
2018-07-13T10:27:58.324Z,7.80
2018-07-13T10:30:26.902Z,5.50
2018-07-13T10:32:55.441Z,4.20
2018-07-13T10:35:24.044Z,4.50
2018-07-13T10:37:52.453Z,5.47
2018-07-13T10:40:20.930Z,5.40
2018-07-13T10:42:49.417Z,4.93
2018-07-13T10:45:17.919Z,4.40
2018-07-13T10:47:46.467Z,4.10
2018-07-13T10:50:14.909Z,4.50
2018-07-13T10:52:43.344Z,4.60
2018-07-13T10:55:11.824Z,6.07
2018-07-13T10:57:40.309Z,4.60
2018-07-13T11:00:08.800Z,4.80
2018-07-13T11:02:37.232Z,6.27
2018-07-13T11:05:05.731Z,4.13
2018-07-13T11:07:34.188Z,8.40
2018-07-13T11:10:02.640Z,3.10
2018-07-13T11:12:31.124Z,4.13
2018-07-13T11:14:59.559Z,3.20
2018-07-13T11:17:28.016Z,4.60
2018-07-13T11:19:56.541Z,3.77
2018-07-13T11:22:26.704Z,3.97
2018-07-13T11:24:55.269Z,3.87
2018-07-13T11:27:23.741Z,4.60
2018-07-13T11:29:52.221Z,4.10
2018-07-13T11:32:20.632Z,4.03
2018-07-13T11:34:49.148Z,3.57
2018-07-13T11:37:17.779Z,4.00
2018-07-13T11:39:46.096Z,4.20
2018-07-13T11:42:14.581Z,3.30
2018-07-13T11:44:43.061Z,3.93
2018-07-13T11:47:11.577Z,4.10
2018-07-13T11:49:40.162Z,4.10
2018-07-13T11:52:08.637Z,3.80
2018-07-13T11:54:37.065Z,4.30
2018-07-13T11:57:05.529Z,5.77
2018-07-13T11:59:33.661Z,4.40
2018-07-13T12:02:02.159Z,3.93
2018-07-13T12:04:30.584Z,4.63
2018-07-13T12:06:59.037Z,4.30
2018-07-13T12:09:27.146Z,4.83
2018-07-13T12:11:55.656Z,4.10
2018-07-13T12:14:24.176Z,4.40
2018-07-13T12:16:52.678Z,5.07
2018-07-13T12:19:21.104Z,4.70
2018-07-13T12:21:49.560Z,4.30
2018-07-13T12:24:18.115Z,3.80
2018-07-13T12:26:46.653Z,4.07
2018-07-13T12:29:15.112Z,4.10
2018-07-13T12:31:44.584Z,4.40
2018-07-13T12:34:13.088Z,4.00
2018-07-13T12:36:41.568Z,3.90
2018-07-13T12:39:10.000Z,3.33
2018-07-13T12:41:38.513Z,3.13
2018-07-13T12:44:07.129Z,3.67
2018-07-13T12:46:35.589Z,3.03
2018-07-13T12:49:04.069Z,3.63
2018-07-13T12:51:32.541Z,4.00
2018-07-13T12:54:01.058Z,3.47
2018-07-13T12:56:29.485Z,3.30
2018-07-13T12:58:58.015Z,3.00
2018-07-13T13:01:26.511Z,3.50
2018-07-13T13:03:54.953Z,4.50
2018-07-13T13:06:23.463Z,3.33
2018-07-13T13:08:51.592Z,3.37
2018-07-13T13:11:20.068Z,3.27
2018-07-13T13:13:48.576Z,3.60
2018-07-13T13:16:17.051Z,3.43
2018-07-13T13:18:46.258Z,3.83
2018-07-13T13:21:14.804Z,3.30
2018-07-13T13:23:43.227Z,3.50
2018-07-13T13:26:11.739Z,4.00
2018-07-13T13:28:40.287Z,3.70
2018-07-13T13:31:08.693Z,3.37
2018-07-13T13:33:37.125Z,3.13
2018-07-13T13:36:05.610Z,2.97
2018-07-13T13:38:34.080Z,3.30
2018-07-13T13:41:02.535Z,5.70
2018-07-13T13:43:30.968Z,3.33
2018-07-13T13:45:59.104Z,3.23
2018-07-13T13:48:27.538Z,2.60
2018-07-13T13:50:56.012Z,2.73
2018-07-13T13:53:24.435Z,3.70
2018-07-13T13:55:52.919Z,3.00
2018-07-13T13:58:21.360Z,2.70
2018-07-13T14:00:49.839Z,2.80
2018-07-13T14:03:18.327Z,3.20
2018-07-13T14:05:47.359Z,3.33
2018-07-13T14:08:16.268Z,2.50
2018-07-13T14:10:44.729Z,3.60
2018-07-13T14:13:13.172Z,3.00
2018-07-13T14:15:41.704Z,2.87
2018-07-13T14:18:10.248Z,3.30
2018-07-13T14:20:38.681Z,3.13
2018-07-13T14:23:06.822Z,3.20
2018-07-13T14:25:35.320Z,2.73
2018-07-13T14:28:03.819Z,3.13
2018-07-13T14:30:32.564Z,2.50
2018-07-13T14:33:01.013Z,2.77
2018-07-13T14:35:29.514Z,3.23
2018-07-13T14:37:57.981Z,3.17
2018-07-13T14:40:26.415Z,3.50
2018-07-13T14:42:54.539Z,2.67
2018-07-13T14:45:23.022Z,2.90
2018-07-13T14:47:51.439Z,4.00
2018-07-13T14:50:19.548Z,2.93
2018-07-13T14:52:48.021Z,2.43
2018-07-13T14:55:16.478Z,2.60
2018-07-13T14:57:44.619Z,3.00
2018-07-13T15:00:13.104Z,2.67
2018-07-13T15:02:41.648Z,3.00
2018-07-13T15:05:10.180Z,2.70
2018-07-13T15:07:38.581Z,3.07
2018-07-13T15:10:07.143Z,2.77
2018-07-13T15:12:35.551Z,3.10
2018-07-13T15:15:04.130Z,2.50
2018-07-13T15:17:32.599Z,2.27
2018-07-13T15:20:01.084Z,2.90
2018-07-13T15:22:29.573Z,2.87
2018-07-13T15:24:58.076Z,2.30
2018-07-13T15:27:26.683Z,2.53
2018-07-13T15:29:55.094Z,2.73
2018-07-13T15:32:23.625Z,2.70
2018-07-13T15:34:52.047Z,3.17
2018-07-13T15:37:20.861Z,2.40
2018-07-13T15:39:49.472Z,2.60
2018-07-13T15:42:17.920Z,2.50
2018-07-13T15:44:46.418Z,2.97
2018-07-13T15:47:14.887Z,2.90
2018-07-13T15:49:43.317Z,2.90
2018-07-13T15:52:11.797Z,2.90
2018-07-13T15:54:40.230Z,2.60
2018-07-13T15:57:09.588Z,2.43
2018-07-13T15:59:37.765Z,3.00
2018-07-13T16:02:05.892Z,2.47
2018-07-13T16:04:34.604Z,2.77
2018-07-13T16:07:03.413Z,2.30
2018-07-13T16:09:31.852Z,2.30
2018-07-13T16:12:00.390Z,2.40
2018-07-13T16:14:28.848Z,2.70
2018-07-13T16:16:56.959Z,2.90
2018-07-13T16:19:25.385Z,2.90
2018-07-13T16:21:53.860Z,2.80
2018-07-13T16:24:22.305Z,2.90
2018-07-13T16:26:50.785Z,2.43
2018-07-13T16:29:19.221Z,2.90
2018-07-13T16:31:47.759Z,2.40
2018-07-13T16:34:17.093Z,4.00
2018-07-13T16:36:45.192Z,3.00
2018-07-13T16:39:13.742Z,3.03
2018-07-13T16:41:42.201Z,2.60
2018-07-13T16:44:10.651Z,3.20
2018-07-13T16:46:39.113Z,2.50
2018-07-13T16:49:07.608Z,2.40
2018-07-13T16:51:36.033Z,2.47
2018-07-13T16:54:04.503Z,2.60
2018-07-13T16:56:32.975Z,2.43
2018-07-13T16:59:01.395Z,2.60
2018-07-13T17:01:29.891Z,2.20
2018-07-13T17:03:58.342Z,3.07
2018-07-13T17:06:26.790Z,2.80
2018-07-13T17:08:55.375Z,2.53
2018-07-13T17:11:23.807Z,2.63
2018-07-13T17:13:52.289Z,2.77
2018-07-13T17:16:20.739Z,2.97
2018-07-13T17:18:49.181Z,2.63
2018-07-13T17:21:18.184Z,2.77
2018-07-13T17:23:46.641Z,2.73
2018-07-13T17:26:15.151Z,2.40
2018-07-13T17:28:43.853Z,2.60
2018-07-13T17:31:11.979Z,2.97
2018-07-13T17:33:40.489Z,2.63
2018-07-13T17:36:08.932Z,2.63
2018-07-13T17:38:37.393Z,3.50
2018-07-13T17:41:05.946Z,3.10
2018-07-13T17:43:34.400Z,3.07
2018-07-13T17:46:02.829Z,2.90
2018-07-13T17:48:31.581Z,31.83
2018-07-13T17:51:00.129Z,5.63
2018-07-13T17:53:28.609Z,3.63
2018-07-13T17:55:57.108Z,3.70
2018-07-13T17:58:25.562Z,3.43
2018-07-13T18:00:54.168Z,3.63
2018-07-13T18:03:22.469Z,3.20
2018-07-13T18:05:50.597Z,3.17
2018-07-13T18:08:19.071Z,3.70
2018-07-13T18:10:47.521Z,3.53
2018-07-13T18:13:16.020Z,3.53
2018-07-13T18:15:44.460Z,3.80
2018-07-13T18:18:12.940Z,3.33
2018-07-13T18:20:41.405Z,9.00
2018-07-13T18:23:09.896Z,10.23
2018-07-13T18:25:38.032Z,8.57
2018-07-13T18:28:06.607Z,5.47
2018-07-13T18:30:35.036Z,4.27
2018-07-13T18:33:03.674Z,3.90
2018-07-13T18:35:32.129Z,4.10
2018-07-13T18:38:00.657Z,45.17
2018-07-13T18:40:29.165Z,15.47
2018-07-13T18:42:57.674Z,10.80
2018-07-13T18:45:26.096Z,11.97
2018-07-13T18:47:54.244Z,3.60
2018-07-13T18:50:22.681Z,3.60
2018-07-13T18:52:51.162Z,3.73
2018-07-13T18:55:19.716Z,3.37
2018-07-13T18:57:48.196Z,3.57
2018-07-13T19:00:16.309Z,3.63
2018-07-13T19:02:44.747Z,4.13
2018-07-13T19:05:13.131Z,3.50
2018-07-13T19:07:41.568Z,3.30
2018-07-13T19:10:10.056Z,3.53
2018-07-13T19:12:38.532Z,3.20
